createdAt,value
2023-03-05T00:03:38.281Z,11.35
2023-03-05T00:08:41.142Z,11.20
2023-03-05T00:13:43.633Z,10.20
2023-03-05T00:18:46.764Z,11.90
2023-03-05T00:23:50.978Z,10.40
2023-03-05T00:28:54.738Z,10.95
2023-03-05T00:33:59.703Z,11.50
2023-03-05T00:39:02.240Z,12.55
2023-03-05T00:44:04.839Z,9.98
2023-03-05T00:49:07.783Z,9.80
2023-03-05T00:54:10.312Z,9.82
2023-03-05T00:59:12.674Z,12.43
2023-03-05T01:04:15.133Z,14.02
2023-03-05T01:09:17.739Z,10.32
2023-03-05T01:14:20.910Z,12.55
2023-03-05T01:19:23.351Z,14.10
2023-03-05T01:24:25.723Z,14.23
2023-03-05T01:29:28.589Z,14.48
2023-03-05T01:34:30.856Z,15.30
2023-03-05T01:39:33.326Z,15.73
2023-03-05T01:44:35.827Z,15.45
2023-03-05T01:49:42.053Z,12.13
2023-03-05T01:54:53.668Z,15.80
2023-03-05T02:00:00.700Z,12.93
2023-03-05T02:05:07.748Z,16.23
2023-03-05T02:10:18.757Z,16.58
2023-03-05T02:15:21.965Z,12.77
2023-03-05T02:20:30.719Z,12.35
2023-03-05T02:25:33.410Z,13.95
2023-03-05T02:30:36.323Z,16.85
2023-03-05T02:35:38.859Z,16.65
2023-03-05T02:40:42.064Z,16.88
2023-03-05T02:45:44.667Z,16.67
2023-03-05T02:50:48.231Z,14.90
2023-03-05T02:55:51.734Z,18.55
2023-03-05T03:00:54.194Z,16.63
2023-03-05T03:05:57.315Z,14.85
2023-03-05T03:11:11.426Z,15.95
2023-03-05T03:16:17.195Z,16.73
2023-03-05T03:21:24.864Z,15.13
2023-03-05T03:26:27.628Z,8.73
2023-03-05T03:31:29.999Z,11.05
2023-03-05T03:36:32.568Z,14.30
2023-03-05T03:41:34.918Z,10.23
2023-03-05T03:46:39.640Z,13.00
2023-03-05T03:51:42.033Z,14.85
2023-03-05T03:56:44.385Z,15.40
2023-03-05T04:01:47.470Z,13.55
2023-03-05T04:06:49.813Z,12.45
2023-03-05T04:11:52.279Z,12.82
2023-03-05T04:16:54.829Z,14.52
2023-03-05T04:21:59.101Z,13.45
2023-03-05T04:27:01.560Z,14.88
2023-03-05T04:32:04.404Z,11.07
2023-03-05T04:37:06.813Z,14.27
2023-03-05T04:42:10.736Z,12.68
2023-03-05T04:47:13.053Z,12.32
2023-03-05T04:52:16.097Z,8.18
2023-03-05T04:57:18.484Z,13.70
2023-03-05T05:02:20.875Z,10.60
2023-03-05T05:07:23.151Z,12.32
2023-03-05T05:12:28.277Z,12.82
2023-03-05T05:17:33.387Z,9.95
2023-03-05T05:22:35.785Z,10.98
2023-03-05T05:27:39.730Z,11.13
2023-03-05T05:32:42.193Z,8.98
2023-03-05T05:37:44.652Z,10.05
2023-03-05T05:42:47.033Z,8.48
2023-03-05T05:47:49.424Z,7.32
2023-03-05T05:52:52.510Z,10.20
2023-03-05T05:57:54.948Z,9.70
2023-03-05T06:02:57.345Z,9.68
2023-03-05T06:07:59.785Z,8.43
2023-03-05T06:13:02.162Z,8.57
2023-03-05T06:18:04.566Z,7.85
2023-03-05T06:23:07.519Z,9.02
2023-03-05T06:28:09.952Z,7.85
2023-03-05T06:33:12.643Z,7.82
2023-03-05T06:38:15.044Z,6.30
2023-03-05T06:43:17.760Z,7.35
2023-03-05T06:48:20.080Z,7.90
2023-03-05T06:53:24.668Z,6.85
2023-03-05T06:58:27.082Z,6.97
2023-03-05T07:03:29.376Z,8.88
2023-03-05T07:08:32.831Z,8.77
2023-03-05T07:13:35.194Z,7.43
2023-03-05T07:18:37.565Z,8.10
2023-03-05T07:23:39.964Z,8.10
2023-03-05T07:28:43.343Z,6.32
2023-03-05T07:33:50.528Z,8.57
2023-03-05T07:38:53.086Z,8.88
2023-03-05T07:43:55.559Z,8.52
2023-03-05T07:48:58.455Z,8.05
2023-03-05T07:54:01.045Z,6.93
2023-03-05T07:59:06.947Z,7.80
2023-03-05T08:04:11.155Z,8.05
2023-03-05T08:09:13.922Z,9.15
2023-03-05T08:14:16.346Z,9.07
2023-03-05T08:19:20.337Z,9.77
2023-03-05T08:24:29.771Z,10.15
2023-03-05T08:29:32.347Z,7.88
2023-03-05T08:34:34.956Z,9.30
2023-03-05T08:39:37.387Z,9.45
2023-03-05T08:44:39.778Z,8.68
2023-03-05T08:49:42.225Z,9.68
2023-03-05T08:54:44.620Z,8.95
2023-03-05T08:59:47.009Z,9.18
2023-03-05T09:04:49.369Z,10.00
2023-03-05T09:09:51.758Z,10.52
2023-03-05T09:14:57.220Z,11.15
2023-03-05T09:19:59.580Z,10.07
2023-03-05T09:25:01.964Z,10.32
2023-03-05T09:30:07.100Z,9.15
2023-03-05T09:35:10.175Z,11.13
2023-03-05T09:40:18.634Z,10.80
2023-03-05T09:45:25.405Z,10.93
2023-03-05T09:50:33.518Z,9.15
2023-03-05T09:55:41.238Z,7.85
2023-03-05T10:00:47.547Z,8.13
2023-03-05T10:05:52.577Z,9.65
2023-03-05T10:10:55.572Z,10.15
2023-03-05T10:16:25.830Z,8.80
2023-03-05T10:21:37.402Z,9.32
2023-03-05T10:27:00.257Z,9.30
2023-03-05T10:32:25.189Z,9.52
2023-03-05T10:37:39.652Z,9.70
2023-03-05T10:42:46.961Z,8.35
2023-03-05T10:48:07.983Z,10.07
2023-03-05T10:53:10.358Z,8.77
2023-03-05T10:58:14.698Z,7.82
2023-03-05T11:03:17.105Z,8.40
2023-03-05T11:08:27.276Z,11.00
2023-03-05T11:13:30.171Z,9.15
2023-03-05T11:18:36.536Z,10.88
2023-03-05T11:23:40.713Z,9.32
2023-03-05T11:28:54.847Z,9.65
2023-03-05T11:34:00.185Z,9.73
2023-03-05T11:39:08.697Z,9.85
2023-03-05T11:44:19.784Z,10.18
2023-03-05T11:49:26.384Z,10.20
2023-03-05T11:54:42.757Z,8.82
2023-03-05T11:59:45.766Z,10.32
2023-03-05T12:04:49.564Z,8.75
2023-03-05T12:09:53.824Z,8.65
2023-03-05T12:15:06.359Z,8.30
2023-03-05T12:20:22.781Z,9.07
2023-03-05T12:25:35.388Z,9.38
2023-03-05T12:30:37.700Z,9.63
2023-03-05T12:35:41.307Z,9.27
2023-03-05T12:40:43.789Z,10.55
2023-03-05T12:45:46.217Z,11.02
2023-03-05T12:50:49.534Z,10.18
2023-03-05T12:56:02.456Z,11.00
2023-03-05T13:01:26.282Z,9.23
2023-03-05T13:06:34.488Z,11.85
2023-03-05T13:11:39.407Z,10.73
2023-03-05T13:16:41.959Z,9.70
2023-03-05T13:21:44.812Z,11.48
2023-03-05T13:26:47.233Z,10.95
2023-03-05T13:31:52.343Z,10.80
2023-03-05T13:37:20.725Z,10.50
2023-03-05T13:42:35.084Z,11.75
2023-03-05T13:47:37.529Z,12.43
2023-03-05T13:52:39.874Z,12.27
2023-03-05T13:57:56.048Z,11.25
2023-03-05T14:03:08.021Z,10.30
2023-03-05T14:08:21.835Z,10.23
2023-03-05T14:13:28.010Z,11.10
2023-03-05T14:18:30.395Z,11.40
2023-03-05T14:23:37.335Z,10.02
2023-03-05T14:28:39.959Z,11.27
2023-03-05T14:33:42.557Z,12.52
2023-03-05T14:38:45.640Z,11.20
2023-03-05T14:43:47.974Z,10.88
2023-03-05T14:48:50.337Z,11.30
2023-03-05T14:53:52.813Z,12.40
2023-03-05T14:58:55.649Z,11.80
2023-03-05T15:03:58.010Z,12.23
2023-03-05T15:09:01.465Z,11.55
2023-03-05T15:14:06.522Z,11.85
2023-03-05T15:24:15.075Z,11.85
2023-03-05T15:29:17.544Z,11.20
2023-03-05T15:34:20.023Z,12.23
2023-03-05T15:39:25.166Z,12.55
2023-03-05T15:44:27.907Z,12.13
2023-03-05T15:49:30.257Z,12.63
2023-03-05T15:54:32.651Z,11.48
2023-03-05T15:59:35.020Z,12.40
2023-03-05T16:04:37.403Z,15.07
2023-03-05T16:09:44.547Z,12.85
2023-03-05T16:14:49.268Z,12.82
2023-03-05T16:19:56.091Z,12.38
2023-03-05T16:24:59.485Z,13.38
2023-03-05T16:30:02.173Z,14.18
2023-03-05T16:35:05.610Z,12.75
2023-03-05T16:40:13.863Z,12.75
2023-03-05T16:45:16.261Z,13.80
2023-03-05T16:50:18.699Z,12.30
2023-03-05T16:55:21.040Z,13.00
2023-03-05T17:00:24.969Z,13.70
2023-03-05T17:05:28.477Z,12.45
2023-03-05T17:10:31.915Z,14.02
2023-03-05T17:15:34.354Z,14.60
2023-03-05T17:20:37.440Z,13.48
2023-03-05T17:25:40.112Z,12.32
2023-03-05T17:30:42.636Z,13.18
2023-03-05T17:35:48.201Z,12.30
2023-03-05T17:40:51.026Z,12.43
2023-03-05T17:45:53.434Z,11.45
2023-03-05T17:50:55.839Z,10.82
2023-03-05T17:55:58.278Z,12.00
2023-03-05T18:01:00.690Z,12.50
2023-03-05T18:06:04.121Z,15.00
2023-03-05T18:11:06.522Z,12.23
2023-03-05T18:16:10.558Z,13.45
2023-03-05T18:21:13.120Z,12.38
2023-03-05T18:26:15.964Z,12.05
2023-03-05T18:31:19.549Z,11.23
2023-03-05T18:36:21.848Z,11.40
2023-03-05T18:41:27.636Z,11.45
2023-03-05T18:46:30.367Z,10.60
2023-03-05T18:51:34.041Z,10.98
2023-03-05T18:56:36.403Z,9.90
2023-03-05T19:01:38.854Z,8.80
2023-03-05T19:06:41.405Z,9.10
2023-03-05T19:11:43.853Z,8.02
2023-03-05T19:16:46.300Z,6.90
2023-03-05T19:21:59.970Z,8.07
2023-03-05T19:27:10.358Z,8.93
2023-03-05T19:32:16.143Z,8.75
2023-03-05T19:37:18.645Z,9.65
2023-03-05T19:42:21.031Z,9.38
2023-03-05T19:47:24.493Z,9.50
2023-03-05T19:52:27.896Z,8.35
2023-03-05T19:57:30.241Z,9.63
2023-03-05T20:02:33.075Z,10.32
2023-03-05T20:07:35.466Z,9.63
2023-03-05T20:12:39.415Z,8.98
2023-03-05T20:17:45.933Z,9.60
2023-03-05T20:22:48.478Z,9.13
2023-03-05T20:27:51.955Z,9.82
2023-03-05T20:32:54.335Z,11.68
2023-03-05T20:38:20.994Z,11.50
2023-03-05T20:43:23.649Z,10.68
2023-03-05T20:48:29.136Z,12.68
2023-03-05T20:53:31.473Z,9.65
2023-03-05T20:58:34.335Z,10.45
2023-03-05T21:03:38.979Z,10.75
2023-03-05T21:08:41.455Z,12.23
2023-03-05T21:13:44.602Z,11.05
2023-03-05T21:18:47.161Z,11.32
2023-03-05T21:23:49.549Z,10.05
2023-03-05T21:28:51.996Z,11.18
2023-03-05T21:33:54.594Z,10.25
2023-03-05T21:38:57.060Z,9.98
2023-03-05T21:44:04.298Z,10.52
2023-03-05T21:49:06.672Z,10.65
2023-03-05T21:54:09.228Z,10.98
2023-03-05T21:59:11.700Z,9.95
2023-03-05T22:04:14.098Z,9.63
2023-03-05T22:09:16.560Z,10.65
2023-03-05T22:14:18.963Z,10.27
2023-03-05T22:19:22.209Z,10.73
2023-03-05T22:24:27.817Z,10.25
2023-03-05T22:29:30.303Z,10.20
2023-03-05T22:34:32.705Z,10.63
2023-03-05T22:39:35.540Z,10.35
2023-03-05T22:44:38.043Z,10.07
2023-03-05T22:49:40.412Z,9.40
2023-03-05T22:54:42.800Z,10.48
2023-03-05T22:59:45.391Z,11.48
2023-03-05T23:04:57.578Z,11.93
2023-03-05T23:10:14.586Z,11.82
2023-03-05T23:15:20.565Z,13.45
2023-03-05T23:20:27.020Z,11.63
2023-03-05T23:25:33.139Z,11.45
2023-03-05T23:30:40.257Z,11.85
2023-03-05T23:35:50.016Z,11.93
2023-03-05T23:40:54.407Z,11.30
2023-03-05T23:45:57.409Z,11.70
2023-03-05T23:50:59.788Z,10.95
2023-03-05T23:56:02.410Z,11.25
